sensor_id;sensor_type;location;lat;lon;timestamp;temperature;humidity
2721;DHT22;1368;49.484;11.112;2023-03-31T00:01:35;12.20;99.90
2721;DHT22;1368;49.484;11.112;2023-03-31T00:04:01;12.10;99.90
2721;DHT22;1368;49.484;11.112;2023-03-31T00:06:31;12.20;99.90
2721;DHT22;1368;49.484;11.112;2023-03-31T00:09:05;12.20;99.90
2721;DHT22;1368;49.484;11.112;2023-03-31T00:11:31;12.20;99.90
2721;DHT22;1368;49.484;11.112;2023-03-31T00:13:56;11.60;99.90
2721;DHT22;1368;49.484;11.112;2023-03-31T00:16:22;11.50;99.90
2721;DHT22;1368;49.484;11.112;2023-03-31T00:18:47;11.60;99.90
2721;DHT22;1368;49.484;11.112;2023-03-31T00:21:20;11.60;99.90
2721;DHT22;1368;49.484;11.112;2023-03-31T00:23:51;11.80;99.90
2721;DHT22;1368;49.484;11.112;2023-03-31T00:26:17;11.80;99.90
2721;DHT22;1368;49.484;11.112;2023-03-31T00:28:42;11.80;99.90
2721;DHT22;1368;49.484;11.112;2023-03-31T00:31:08;11.40;99.90
2721;DHT22;1368;49.484;11.112;2023-03-31T00:33:33;11.10;99.90
2721;DHT22;1368;49.484;11.112;2023-03-31T00:35:59;10.70;99.90
2721;DHT22;1368;49.484;11.112;2023-03-31T00:38:27;10.80;99.90
2721;DHT22;1368;49.484;11.112;2023-03-31T00:40:54;10.80;99.90
2721;DHT22;1368;49.484;11.112;2023-03-31T00:43:30;11.20;99.90
2721;DHT22;1368;49.484;11.112;2023-03-31T00:46:19;11.30;99.90
2721;DHT22;1368;49.484;11.112;2023-03-31T00:48:50;11.20;99.90
2721;DHT22;1368;49.484;11.112;2023-03-31T00:51:17;11.40;99.90
2721;DHT22;1368;49.484;11.112;2023-03-31T00:53:48;11.50;99.90
2721;DHT22;1368;49.484;11.112;2023-03-31T00:56:16;11.40;99.90
2721;DHT22;1368;49.484;11.112;2023-03-31T00:58:42;11.30;99.90
2721;DHT22;1368;49.484;11.112;2023-03-31T01:01:14;11.40;99.90
2721;DHT22;1368;49.484;11.112;2023-03-31T01:03:41;11.50;99.90
2721;DHT22;1368;49.484;11.112;2023-03-31T01:06:12;11.40;99.90
2721;DHT22;1368;49.484;11.112;2023-03-31T01:08:39;11.50;99.90
2721;DHT22;1368;49.484;11.112;2023-03-31T01:11:08;11.60;99.90
2721;DHT22;1368;49.484;11.112;2023-03-31T01:13:36;11.70;99.90
2721;DHT22;1368;49.484;11.112;2023-03-31T01:16:02;11.50;99.90
2721;DHT22;1368;49.484;11.112;2023-03-31T01:18:28;11.30;99.90
2721;DHT22;1368;49.484;11.112;2023-03-31T01:45:54;10.90;99.90
2721;DHT22;1368;49.484;11.112;2023-03-31T01:49:07;10.70;99.90
2721;DHT22;1368;49.484;11.112;2023-03-31T01:54:45;10.80;99.90
2721;DHT22;1368;49.484;11.112;2023-03-31T02:02:44;10.70;99.90
2721;DHT22;1368;49.484;11.112;2023-03-31T02:05:17;10.60;99.90
2721;DHT22;1368;49.484;11.112;2023-03-31T02:07:49;10.70;99.90
2721;DHT22;1368;49.484;11.112;2023-03-31T02:10:18;10.60;99.90
2721;DHT22;1368;49.484;11.112;2023-03-31T02:12:45;10.80;99.90
2721;DHT22;1368;49.484;11.112;2023-03-31T02:15:18;10.60;99.90
2721;DHT22;1368;49.484;11.112;2023-03-31T02:17:48;10.70;99.90
2721;DHT22;1368;49.484;11.112;2023-03-31T02:20:18;11.00;99.90
2721;DHT22;1368;49.484;11.112;2023-03-31T02:22:48;10.90;99.90
2721;DHT22;1368;49.484;11.112;2023-03-31T02:25:18;10.70;99.90
2721;DHT22;1368;49.484;11.112;2023-03-31T02:27:50;10.70;99.90
2721;DHT22;1368;49.484;11.112;2023-03-31T02:30:17;10.70;99.90
2721;DHT22;1368;49.484;11.112;2023-03-31T02:32:44;10.60;99.90
2721;DHT22;1368;49.484;11.112;2023-03-31T02:35:19;10.50;99.90
2721;DHT22;1368;49.484;11.112;2023-03-31T02:37:47;10.20;99.90
2721;DHT22;1368;49.484;11.112;2023-03-31T02:40:18;10.20;99.90
2721;DHT22;1368;49.484;11.112;2023-03-31T02:42:44;10.50;99.90
2721;DHT22;1368;49.484;11.112;2023-03-31T02:45:36;10.80;99.90
2721;DHT22;1368;49.484;11.112;2023-03-31T02:48:02;10.70;99.90
2721;DHT22;1368;49.484;11.112;2023-03-31T02:50:40;10.70;99.90
2721;DHT22;1368;49.484;11.112;2023-03-31T02:55:57;10.40;99.90
2721;DHT22;1368;49.484;11.112;2023-03-31T02:58:55;10.60;99.90
2721;DHT22;1368;49.484;11.112;2023-03-31T03:15:26;10.30;99.90
2721;DHT22;1368;49.484;11.112;2023-03-31T03:17:52;10.40;99.90
2721;DHT22;1368;49.484;11.112;2023-03-31T03:20:21;10.40;99.90
2721;DHT22;1368;49.484;11.112;2023-03-31T03:22:47;10.30;99.90
2721;DHT22;1368;49.484;11.112;2023-03-31T03:25:14;10.20;99.90
2721;DHT22;1368;49.484;11.112;2023-03-31T03:27:41;10.50;99.90
2721;DHT22;1368;49.484;11.112;2023-03-31T03:30:09;10.20;99.90
2721;DHT22;1368;49.484;11.112;2023-03-31T03:32:35;10.50;99.90
2721;DHT22;1368;49.484;11.112;2023-03-31T03:35:01;10.50;99.90
2721;DHT22;1368;49.484;11.112;2023-03-31T03:37:27;10.60;99.90
2721;DHT22;1368;49.484;11.112;2023-03-31T03:39:53;11.20;99.90
2721;DHT22;1368;49.484;11.112;2023-03-31T03:42:18;10.80;99.90
2721;DHT22;1368;49.484;11.112;2023-03-31T03:44:44;10.90;99.90
2721;DHT22;1368;49.484;11.112;2023-03-31T03:47:09;11.00;99.90
2721;DHT22;1368;49.484;11.112;2023-03-31T03:49:35;10.90;99.90
2721;DHT22;1368;49.484;11.112;2023-03-31T03:52:00;10.80;99.90
2721;DHT22;1368;49.484;11.112;2023-03-31T03:54:26;10.80;99.90
2721;DHT22;1368;49.484;11.112;2023-03-31T03:56:51;10.90;99.90
2721;DHT22;1368;49.484;11.112;2023-03-31T03:59:17;10.90;99.90
2721;DHT22;1368;49.484;11.112;2023-03-31T04:01:43;10.70;99.90
2721;DHT22;1368;49.484;11.112;2023-03-31T04:04:08;10.40;99.90
2721;DHT22;1368;49.484;11.112;2023-03-31T04:06:34;10.40;99.90
2721;DHT22;1368;49.484;11.112;2023-03-31T04:08:59;10.40;99.90
2721;DHT22;1368;49.484;11.112;2023-03-31T04:11:25;10.40;99.90
2721;DHT22;1368;49.484;11.112;2023-03-31T04:13:52;10.40;99.90
2721;DHT22;1368;49.484;11.112;2023-03-31T04:16:18;10.60;99.90
2721;DHT22;1368;49.484;11.112;2023-03-31T04:18:43;10.70;99.90
2721;DHT22;1368;49.484;11.112;2023-03-31T04:21:11;10.40;99.90
2721;DHT22;1368;49.484;11.112;2023-03-31T04:23:41;10.40;99.90
2721;DHT22;1368;49.484;11.112;2023-03-31T04:26:12;10.40;99.90
2721;DHT22;1368;49.484;11.112;2023-03-31T04:28:38;10.50;99.90
2721;DHT22;1368;49.484;11.112;2023-03-31T04:31:08;10.30;99.90
2721;DHT22;1368;49.484;11.112;2023-03-31T04:33:34;10.40;99.90
2721;DHT22;1368;49.484;11.112;2023-03-31T04:36:04;10.60;99.90
2721;DHT22;1368;49.484;11.112;2023-03-31T04:38:32;10.70;99.90
2721;DHT22;1368;49.484;11.112;2023-03-31T04:41:00;10.80;99.90
2721;DHT22;1368;49.484;11.112;2023-03-31T04:43:26;10.80;99.90
2721;DHT22;1368;49.484;11.112;2023-03-31T04:45:51;10.90;99.90
2721;DHT22;1368;49.484;11.112;2023-03-31T04:48:17;10.70;99.90
2721;DHT22;1368;49.484;11.112;2023-03-31T04:50:42;10.60;99.90
2721;DHT22;1368;49.484;11.112;2023-03-31T04:53:10;10.50;99.90
2721;DHT22;1368;49.484;11.112;2023-03-31T04:55:36;10.60;99.90
2721;DHT22;1368;49.484;11.112;2023-03-31T04:58:01;10.80;99.90
2721;DHT22;1368;49.484;11.112;2023-03-31T05:00:27;10.90;99.90
2721;DHT22;1368;49.484;11.112;2023-03-31T05:02:53;11.10;99.90
2721;DHT22;1368;49.484;11.112;2023-03-31T05:05:18;11.00;99.90
2721;DHT22;1368;49.484;11.112;2023-03-31T05:07:44;10.80;99.90
2721;DHT22;1368;49.484;11.112;2023-03-31T05:10:10;10.80;99.90
2721;DHT22;1368;49.484;11.112;2023-03-31T05:12:36;10.40;99.90
2721;DHT22;1368;49.484;11.112;2023-03-31T05:15:06;10.70;99.90
2721;DHT22;1368;49.484;11.112;2023-03-31T05:17:33;10.60;99.90
2721;DHT22;1368;49.484;11.112;2023-03-31T05:20:00;10.90;99.90
2721;DHT22;1368;49.484;11.112;2023-03-31T05:22:26;11.10;99.90
2721;DHT22;1368;49.484;11.112;2023-03-31T05:24:51;11.30;99.90
2721;DHT22;1368;49.484;11.112;2023-03-31T05:27:17;11.40;99.90
2721;DHT22;1368;49.484;11.112;2023-03-31T05:29:43;11.30;99.90
2721;DHT22;1368;49.484;11.112;2023-03-31T05:32:09;11.40;99.90
2721;DHT22;1368;49.484;11.112;2023-03-31T05:34:34;11.50;99.90
2721;DHT22;1368;49.484;11.112;2023-03-31T05:37:00;11.60;99.90
2721;DHT22;1368;49.484;11.112;2023-03-31T05:39:26;11.50;99.90
2721;DHT22;1368;49.484;11.112;2023-03-31T05:41:57;11.50;99.90
2721;DHT22;1368;49.484;11.112;2023-03-31T05:44:23;11.20;99.90
2721;DHT22;1368;49.484;11.112;2023-03-31T05:46:48;11.00;99.90
2721;DHT22;1368;49.484;11.112;2023-03-31T05:49:14;10.90;99.90
2721;DHT22;1368;49.484;11.112;2023-03-31T05:51:41;10.90;99.90
2721;DHT22;1368;49.484;11.112;2023-03-31T05:54:07;10.90;99.90
2721;DHT22;1368;49.484;11.112;2023-03-31T05:56:33;10.80;99.90
2721;DHT22;1368;49.484;11.112;2023-03-31T05:58:59;10.80;99.90
2721;DHT22;1368;49.484;11.112;2023-03-31T06:01:25;10.50;99.90
2721;DHT22;1368;49.484;11.112;2023-03-31T06:03:51;10.50;99.90
2721;DHT22;1368;49.484;11.112;2023-03-31T06:06:17;10.30;99.90
2721;DHT22;1368;49.484;11.112;2023-03-31T06:08:43;10.00;99.90
2721;DHT22;1368;49.484;11.112;2023-03-31T06:11:12;10.00;99.90
2721;DHT22;1368;49.484;11.112;2023-03-31T06:13:38;10.00;99.90
2721;DHT22;1368;49.484;11.112;2023-03-31T06:16:05;10.00;99.90
2721;DHT22;1368;49.484;11.112;2023-03-31T06:18:33;10.10;99.90
2721;DHT22;1368;49.484;11.112;2023-03-31T06:21:00;10.20;99.90
2721;DHT22;1368;49.484;11.112;2023-03-31T06:23:26;10.30;99.90
2721;DHT22;1368;49.484;11.112;2023-03-31T06:25:52;10.30;99.90
2721;DHT22;1368;49.484;11.112;2023-03-31T06:28:18;10.70;99.90
2721;DHT22;1368;49.484;11.112;2023-03-31T06:30:44;10.40;99.90
2721;DHT22;1368;49.484;11.112;2023-03-31T06:33:10;10.50;99.90
2721;DHT22;1368;49.484;11.112;2023-03-31T06:35:39;10.50;99.90
2721;DHT22;1368;49.484;11.112;2023-03-31T06:38:06;10.70;99.90
2721;DHT22;1368;49.484;11.112;2023-03-31T06:40:32;11.20;99.90
2721;DHT22;1368;49.484;11.112;2023-03-31T06:42:58;11.10;99.90
2721;DHT22;1368;49.484;11.112;2023-03-31T06:45:23;11.10;99.90
2721;DHT22;1368;49.484;11.112;2023-03-31T06:47:49;11.00;99.90
2721;DHT22;1368;49.484;11.112;2023-03-31T06:50:15;10.80;99.90
2721;DHT22;1368;49.484;11.112;2023-03-31T06:52:40;11.00;99.90
2721;DHT22;1368;49.484;11.112;2023-03-31T06:55:07;11.20;99.90
2721;DHT22;1368;49.484;11.112;2023-03-31T06:57:33;10.90;99.90
2721;DHT22;1368;49.484;11.112;2023-03-31T06:59:59;10.90;99.90
2721;DHT22;1368;49.484;11.112;2023-03-31T07:02:25;10.80;99.90
2721;DHT22;1368;49.484;11.112;2023-03-31T07:04:51;11.20;99.90
2721;DHT22;1368;49.484;11.112;2023-03-31T07:07:17;10.60;99.90
2721;DHT22;1368;49.484;11.112;2023-03-31T07:09:42;10.60;99.90
2721;DHT22;1368;49.484;11.112;2023-03-31T07:12:08;10.70;99.90
2721;DHT22;1368;49.484;11.112;2023-03-31T07:14:35;10.60;99.90
2721;DHT22;1368;49.484;11.112;2023-03-31T07:17:00;10.70;99.90
2721;DHT22;1368;49.484;11.112;2023-03-31T07:19:26;10.70;99.90
2721;DHT22;1368;49.484;11.112;2023-03-31T07:21:52;10.50;99.90
2721;DHT22;1368;49.484;11.112;2023-03-31T07:24:18;10.40;99.90
2721;DHT22;1368;49.484;11.112;2023-03-31T07:26:43;10.10;99.90
2721;DHT22;1368;49.484;11.112;2023-03-31T07:29:09;10.00;99.90
2721;DHT22;1368;49.484;11.112;2023-03-31T07:31:35;9.90;99.90
2721;DHT22;1368;49.484;11.112;2023-03-31T07:34:01;9.90;99.90
2721;DHT22;1368;49.484;11.112;2023-03-31T07:36:27;10.00;99.90
2721;DHT22;1368;49.484;11.112;2023-03-31T07:38:54;10.00;99.90
2721;DHT22;1368;49.484;11.112;2023-03-31T07:41:20;10.10;99.90
2721;DHT22;1368;49.484;11.112;2023-03-31T07:43:47;10.00;99.90
2721;DHT22;1368;49.484;11.112;2023-03-31T07:46:25;9.90;99.90
2721;DHT22;1368;49.484;11.112;2023-03-31T07:48:52;9.90;99.90
2721;DHT22;1368;49.484;11.112;2023-03-31T07:51:23;10.00;99.90
2721;DHT22;1368;49.484;11.112;2023-03-31T07:53:49;10.00;99.90
2721;DHT22;1368;49.484;11.112;2023-03-31T07:56:20;9.80;99.90
2721;DHT22;1368;49.484;11.112;2023-03-31T07:58:46;9.90;99.90
2721;DHT22;1368;49.484;11.112;2023-03-31T08:01:16;9.90;99.90
2721;DHT22;1368;49.484;11.112;2023-03-31T08:03:44;9.80;99.90
2721;DHT22;1368;49.484;11.112;2023-03-31T08:06:10;9.90;99.90
2721;DHT22;1368;49.484;11.112;2023-03-31T08:08:36;9.90;99.90
2721;DHT22;1368;49.484;11.112;2023-03-31T08:11:03;9.80;99.90
2721;DHT22;1368;49.484;11.112;2023-03-31T08:13:29;10.00;99.90
2721;DHT22;1368;49.484;11.112;2023-03-31T08:15:54;10.20;99.90
2721;DHT22;1368;49.484;11.112;2023-03-31T08:18:20;10.10;99.90
2721;DHT22;1368;49.484;11.112;2023-03-31T08:20:45;9.90;99.90
2721;DHT22;1368;49.484;11.112;2023-03-31T08:23:14;9.60;99.90
2721;DHT22;1368;49.484;11.112;2023-03-31T08:25:40;9.60;99.90
2721;DHT22;1368;49.484;11.112;2023-03-31T08:28:06;9.80;99.90
2721;DHT22;1368;49.484;11.112;2023-03-31T08:30:36;9.70;99.90
2721;DHT22;1368;49.484;11.112;2023-03-31T08:33:02;9.60;99.90
2721;DHT22;1368;49.484;11.112;2023-03-31T08:35:28;9.70;99.90
2721;DHT22;1368;49.484;11.112;2023-03-31T08:37:54;9.70;99.90
2721;DHT22;1368;49.484;11.112;2023-03-31T08:40:23;9.80;99.90
2721;DHT22;1368;49.484;11.112;2023-03-31T08:42:54;10.10;99.90
2721;DHT22;1368;49.484;11.112;2023-03-31T08:47:58;10.20;99.90
2721;DHT22;1368;49.484;11.112;2023-03-31T08:50:28;10.00;99.90
2721;DHT22;1368;49.484;11.112;2023-03-31T08:53:07;10.00;99.90
2721;DHT22;1368;49.484;11.112;2023-03-31T08:55:51;10.10;99.90
2721;DHT22;1368;49.484;11.112;2023-03-31T08:58:28;10.20;99.90
2721;DHT22;1368;49.484;11.112;2023-03-31T09:01:23;10.50;99.90
2721;DHT22;1368;49.484;11.112;2023-03-31T09:15:34;12.00;99.90
2721;DHT22;1368;49.484;11.112;2023-03-31T09:18:17;12.70;99.90
2721;DHT22;1368;49.484;11.112;2023-03-31T09:20:49;12.10;99.90
2721;DHT22;1368;49.484;11.112;2023-03-31T09:23:24;12.30;99.90
2721;DHT22;1368;49.484;11.112;2023-03-31T09:25:51;11.90;99.90
2721;DHT22;1368;49.484;11.112;2023-03-31T09:28:37;11.80;99.90
2721;DHT22;1368;49.484;11.112;2023-03-31T09:31:16;12.00;99.90
2721;DHT22;1368;49.484;11.112;2023-03-31T09:33:46;12.10;99.90
2721;DHT22;1368;49.484;11.112;2023-03-31T09:36:17;12.30;99.90
2721;DHT22;1368;49.484;11.112;2023-03-31T09:38:45;12.20;99.90
2721;DHT22;1368;49.484;11.112;2023-03-31T09:41:12;12.30;99.90
2721;DHT22;1368;49.484;11.112;2023-03-31T09:43:39;12.60;99.90
2721;DHT22;1368;49.484;11.112;2023-03-31T09:49:13;12.80;99.90
2721;DHT22;1368;49.484;11.112;2023-03-31T09:51:43;13.20;99.90
2721;DHT22;1368;49.484;11.112;2023-03-31T09:54:20;13.60;99.90
2721;DHT22;1368;49.484;11.112;2023-03-31T09:56:48;14.50;99.90
2721;DHT22;1368;49.484;11.112;2023-03-31T09:59:19;15.90;99.90
2721;DHT22;1368;49.484;11.112;2023-03-31T10:01:48;17.10;99.90
2721;DHT22;1368;49.484;11.112;2023-03-31T10:04:24;18.70;99.90
2721;DHT22;1368;49.484;11.112;2023-03-31T10:06:50;19.00;99.90
2721;DHT22;1368;49.484;11.112;2023-03-31T10:09:20;19.80;99.90
2721;DHT22;1368;49.484;11.112;2023-03-31T10:11:52;20.40;99.90
2721;DHT22;1368;49.484;11.112;2023-03-31T10:14:24;20.50;99.90
2721;DHT22;1368;49.484;11.112;2023-03-31T10:16:56;20.60;99.90
2721;DHT22;1368;49.484;11.112;2023-03-31T10:19:23;20.10;99.90
2721;DHT22;1368;49.484;11.112;2023-03-31T10:22:05;19.30;99.90
2721;DHT22;1368;49.484;11.112;2023-03-31T10:24:43;18.50;99.90
2721;DHT22;1368;49.484;11.112;2023-03-31T10:29:43;17.60;99.90
2721;DHT22;1368;49.484;11.112;2023-03-31T10:32:33;17.30;99.90
2721;DHT22;1368;49.484;11.112;2023-03-31T10:35:29;16.70;99.90
2721;DHT22;1368;49.484;11.112;2023-03-31T10:37:58;16.40;99.90
2721;DHT22;1368;49.484;11.112;2023-03-31T10:40:28;15.90;99.90
2721;DHT22;1368;49.484;11.112;2023-03-31T10:43:03;15.70;99.90
2721;DHT22;1368;49.484;11.112;2023-03-31T10:45:36;15.60;99.90
2721;DHT22;1368;49.484;11.112;2023-03-31T10:48:02;15.60;99.90
2721;DHT22;1368;49.484;11.112;2023-03-31T10:50:35;15.70;99.90
2721;DHT22;1368;49.484;11.112;2023-03-31T10:53:08;16.30;99.90
2721;DHT22;1368;49.484;11.112;2023-03-31T10:55:41;16.50;99.90
2721;DHT22;1368;49.484;11.112;2023-03-31T11:01:13;17.20;99.90
2721;DHT22;1368;49.484;11.112;2023-03-31T11:14:45;17.80;99.90
2721;DHT22;1368;49.484;11.112;2023-03-31T11:22:47;17.00;99.90
2721;DHT22;1368;49.484;11.112;2023-03-31T11:38:58;17.90;99.90
2721;DHT22;1368;49.484;11.112;2023-03-31T11:41:36;17.80;99.90
2721;DHT22;1368;49.484;11.112;2023-03-31T11:44:05;17.90;99.90
2721;DHT22;1368;49.484;11.112;2023-03-31T11:46:56;17.30;99.90
2721;DHT22;1368;49.484;11.112;2023-03-31T11:49:30;17.00;99.90
2721;DHT22;1368;49.484;11.112;2023-03-31T11:52:06;16.90;99.90
2721;DHT22;1368;49.484;11.112;2023-03-31T11:54:42;17.00;99.90
2721;DHT22;1368;49.484;11.112;2023-03-31T11:58:00;17.60;99.90
2721;DHT22;1368;49.484;11.112;2023-03-31T12:00:05;17.60;99.90
2721;DHT22;1368;49.484;11.112;2023-03-31T12:05:08;16.60;99.90
2721;DHT22;1368;49.484;11.112;2023-03-31T12:07:49;15.50;99.90
2721;DHT22;1368;49.484;11.112;2023-03-31T12:10:31;15.30;99.90
2721;DHT22;1368;49.484;11.112;2023-03-31T12:16:10;16.20;99.90
2721;DHT22;1368;49.484;11.112;2023-03-31T12:21:28;15.90;99.90
2721;DHT22;1368;49.484;11.112;2023-03-31T12:23:54;16.30;99.90
2721;DHT22;1368;49.484;11.112;2023-03-31T12:26:40;15.50;99.90
2721;DHT22;1368;49.484;11.112;2023-03-31T12:29:32;15.50;99.90
2721;DHT22;1368;49.484;11.112;2023-03-31T12:32:02;15.60;99.90
2721;DHT22;1368;49.484;11.112;2023-03-31T12:34:30;15.60;99.90
2721;DHT22;1368;49.484;11.112;2023-03-31T12:37:05;15.80;99.90
2721;DHT22;1368;49.484;11.112;2023-03-31T12:39:55;16.20;99.90
2721;DHT22;1368;49.484;11.112;2023-03-31T12:48:23;15.60;99.90
2721;DHT22;1368;49.484;11.112;2023-03-31T12:54:08;15.20;99.90
2721;DHT22;1368;49.484;11.112;2023-03-31T12:57:02;15.20;99.90
2721;DHT22;1368;49.484;11.112;2023-03-31T12:59:34;16.00;99.90
2721;DHT22;1368;49.484;11.112;2023-03-31T13:04:36;16.60;99.90
2721;DHT22;1368;49.484;11.112;2023-03-31T13:07:02;16.10;99.90
2721;DHT22;1368;49.484;11.112;2023-03-31T13:09:42;15.70;99.90
2721;DHT22;1368;49.484;11.112;2023-03-31T13:12:14;15.10;99.90
2721;DHT22;1368;49.484;11.112;2023-03-31T13:14:43;13.50;99.90
2721;DHT22;1368;49.484;11.112;2023-03-31T13:19:43;10.70;99.90
2721;DHT22;1368;49.484;11.112;2023-03-31T13:22:35;10.30;99.90
2721;DHT22;1368;49.484;11.112;2023-03-31T13:27:55;10.30;99.90
2721;DHT22;1368;49.484;11.112;2023-03-31T13:33:14;10.40;99.90
2721;DHT22;1368;49.484;11.112;2023-03-31T13:35:45;10.60;99.90
2721;DHT22;1368;49.484;11.112;2023-03-31T13:41:26;11.40;99.90
2721;DHT22;1368;49.484;11.112;2023-03-31T13:49:54;13.40;99.90
2721;DHT22;1368;49.484;11.112;2023-03-31T13:52:51;13.70;99.90
2721;DHT22;1368;49.484;11.112;2023-03-31T13:55:31;14.00;99.90
2721;DHT22;1368;49.484;11.112;2023-03-31T14:00:49;14.10;99.90
2721;DHT22;1368;49.484;11.112;2023-03-31T14:03:50;14.10;99.90
2721;DHT22;1368;49.484;11.112;2023-03-31T14:06:54;13.80;99.90
2721;DHT22;1368;49.484;11.112;2023-03-31T14:09:35;13.90;99.90
2721;DHT22;1368;49.484;11.112;2023-03-31T14:14:58;13.60;99.90
2721;DHT22;1368;49.484;11.112;2023-03-31T14:17:34;13.40;99.90
2721;DHT22;1368;49.484;11.112;2023-03-31T14:25:45;14.30;99.90
2721;DHT22;1368;49.484;11.112;2023-03-31T14:34:11;15.00;99.90
2721;DHT22;1368;49.484;11.112;2023-03-31T14:36:59;15.00;99.90
2721;DHT22;1368;49.484;11.112;2023-03-31T14:39:35;14.90;99.90
2721;DHT22;1368;49.484;11.112;2023-03-31T14:42:04;15.00;99.90
2721;DHT22;1368;49.484;11.112;2023-03-31T14:44:32;14.60;99.90
2721;DHT22;1368;49.484;11.112;2023-03-31T14:46:58;14.50;99.90
2721;DHT22;1368;49.484;11.112;2023-03-31T14:49:26;14.50;99.90
2721;DHT22;1368;49.484;11.112;2023-03-31T14:51:54;14.20;99.90
2721;DHT22;1368;49.484;11.112;2023-03-31T14:54:20;14.00;99.90
2721;DHT22;1368;49.484;11.112;2023-03-31T14:56:52;14.20;99.90
2721;DHT22;1368;49.484;11.112;2023-03-31T14:59:38;14.20;99.90
2721;DHT22;1368;49.484;11.112;2023-03-31T15:02:04;14.80;99.90
2721;DHT22;1368;49.484;11.112;2023-03-31T15:04:36;14.60;99.90
2721;DHT22;1368;49.484;11.112;2023-03-31T15:07:09;14.60;99.90
2721;DHT22;1368;49.484;11.112;2023-03-31T15:09:35;14.30;99.90
2721;DHT22;1368;49.484;11.112;2023-03-31T15:12:03;13.90;99.90
2721;DHT22;1368;49.484;11.112;2023-03-31T15:14:37;14.00;99.90
2721;DHT22;1368;49.484;11.112;2023-03-31T15:17:05;14.10;99.90
2721;DHT22;1368;49.484;11.112;2023-03-31T15:19:33;14.70;99.90
2721;DHT22;1368;49.484;11.112;2023-03-31T15:22:16;14.20;99.90
2721;DHT22;1368;49.484;11.112;2023-03-31T15:24:43;14.10;99.90
2721;DHT22;1368;49.484;11.112;2023-03-31T15:27:18;14.10;99.90
2721;DHT22;1368;49.484;11.112;2023-03-31T15:29:53;14.10;99.90
2721;DHT22;1368;49.484;11.112;2023-03-31T15:32:28;14.10;99.90
2721;DHT22;1368;49.484;11.112;2023-03-31T15:34:55;14.10;99.90
2721;DHT22;1368;49.484;11.112;2023-03-31T15:37:27;14.20;99.90
2721;DHT22;1368;49.484;11.112;2023-03-31T15:39:57;14.40;99.90
2721;DHT22;1368;49.484;11.112;2023-03-31T15:42:24;14.40;99.90
2721;DHT22;1368;49.484;11.112;2023-03-31T15:47:27;14.60;99.90
2721;DHT22;1368;49.484;11.112;2023-03-31T15:50:09;14.50;99.90
2721;DHT22;1368;49.484;11.112;2023-03-31T15:52:45;14.50;99.90
2721;DHT22;1368;49.484;11.112;2023-03-31T15:55:30;14.60;99.90
2721;DHT22;1368;49.484;11.112;2023-03-31T15:57:59;14.90;99.90
2721;DHT22;1368;49.484;11.112;2023-03-31T16:00:49;14.70;99.90
2721;DHT22;1368;49.484;11.112;2023-03-31T16:03:28;14.60;99.90
2721;DHT22;1368;49.484;11.112;2023-03-31T16:06:02;14.50;99.90
2721;DHT22;1368;49.484;11.112;2023-03-31T16:11:52;14.20;99.90
2721;DHT22;1368;49.484;11.112;2023-03-31T16:14:25;14.10;99.90
2721;DHT22;1368;49.484;11.112;2023-03-31T16:16:55;14.10;99.90
2721;DHT22;1368;49.484;11.112;2023-03-31T16:19:23;14.10;99.90
2721;DHT22;1368;49.484;11.112;2023-03-31T16:21:53;13.60;99.90
2721;DHT22;1368;49.484;11.112;2023-03-31T16:24:20;14.20;99.90
2721;DHT22;1368;49.484;11.112;2023-03-31T16:27:00;13.70;99.90
2721;DHT22;1368;49.484;11.112;2023-03-31T16:29:31;13.60;99.90
2721;DHT22;1368;49.484;11.112;2023-03-31T16:32:11;13.60;99.90
2721;DHT22;1368;49.484;11.112;2023-03-31T16:34:57;13.20;99.90
2721;DHT22;1368;49.484;11.112;2023-03-31T16:37:23;13.30;99.90
2721;DHT22;1368;49.484;11.112;2023-03-31T16:39:49;13.50;99.90
2721;DHT22;1368;49.484;11.112;2023-03-31T16:42:15;13.50;99.90
2721;DHT22;1368;49.484;11.112;2023-03-31T16:44:41;13.50;99.90
2721;DHT22;1368;49.484;11.112;2023-03-31T16:47:06;13.50;99.90
2721;DHT22;1368;49.484;11.112;2023-03-31T16:49:32;13.40;99.90
2721;DHT22;1368;49.484;11.112;2023-03-31T16:51:57;13.50;99.90
2721;DHT22;1368;49.484;11.112;2023-03-31T16:54:23;13.60;99.90
2721;DHT22;1368;49.484;11.112;2023-03-31T16:56:48;13.60;99.90
2721;DHT22;1368;49.484;11.112;2023-03-31T16:59:14;13.70;99.90
2721;DHT22;1368;49.484;11.112;2023-03-31T17:01:40;13.60;99.90
2721;DHT22;1368;49.484;11.112;2023-03-31T17:04:06;13.30;99.90
2721;DHT22;1368;49.484;11.112;2023-03-31T17:06:32;13.30;99.90
2721;DHT22;1368;49.484;11.112;2023-03-31T17:08:57;13.20;99.90
2721;DHT22;1368;49.484;11.112;2023-03-31T17:11:23;13.00;99.90
2721;DHT22;1368;49.484;11.112;2023-03-31T17:13:48;12.80;99.90
2721;DHT22;1368;49.484;11.112;2023-03-31T17:16:14;12.30;99.90
2721;DHT22;1368;49.484;11.112;2023-03-31T17:18:42;11.70;99.90
2721;DHT22;1368;49.484;11.112;2023-03-31T17:21:10;11.50;99.90
2721;DHT22;1368;49.484;11.112;2023-03-31T17:23:36;11.50;99.90
2721;DHT22;1368;49.484;11.112;2023-03-31T17:26:02;11.70;99.90
2721;DHT22;1368;49.484;11.112;2023-03-31T17:28:29;11.90;99.90
2721;DHT22;1368;49.484;11.112;2023-03-31T17:30:55;12.00;99.90
2721;DHT22;1368;49.484;11.112;2023-03-31T17:33:21;12.00;99.90
2721;DHT22;1368;49.484;11.112;2023-03-31T17:35:47;12.10;99.90
2721;DHT22;1368;49.484;11.112;2023-03-31T17:38:13;12.50;99.90
2721;DHT22;1368;49.484;11.112;2023-03-31T17:40:39;12.60;99.90
2721;DHT22;1368;49.484;11.112;2023-03-31T17:43:06;12.60;99.90
2721;DHT22;1368;49.484;11.112;2023-03-31T17:45:32;12.70;99.90
2721;DHT22;1368;49.484;11.112;2023-03-31T17:47:58;12.90;99.90
2721;DHT22;1368;49.484;11.112;2023-03-31T17:50:24;13.10;99.90
2721;DHT22;1368;49.484;11.112;2023-03-31T17:52:51;13.20;99.90
2721;DHT22;1368;49.484;11.112;2023-03-31T17:55:17;13.60;99.90
2721;DHT22;1368;49.484;11.112;2023-03-31T17:57:43;13.30;99.90
2721;DHT22;1368;49.484;11.112;2023-03-31T18:00:09;13.20;99.90
2721;DHT22;1368;49.484;11.112;2023-03-31T18:02:39;13.10;99.90
2721;DHT22;1368;49.484;11.112;2023-03-31T18:05:05;13.50;99.90
2721;DHT22;1368;49.484;11.112;2023-03-31T18:07:31;13.10;99.90
2721;DHT22;1368;49.484;11.112;2023-03-31T18:09:57;13.10;99.90
2721;DHT22;1368;49.484;11.112;2023-03-31T18:12:23;13.20;99.90
2721;DHT22;1368;49.484;11.112;2023-03-31T18:14:49;13.90;99.90
2721;DHT22;1368;49.484;11.112;2023-03-31T18:17:16;13.20;99.90
2721;DHT22;1368;49.484;11.112;2023-03-31T18:19:42;13.10;99.90
2721;DHT22;1368;49.484;11.112;2023-03-31T18:22:08;12.90;99.90
2721;DHT22;1368;49.484;11.112;2023-03-31T18:24:33;12.90;99.90
2721;DHT22;1368;49.484;11.112;2023-03-31T18:27:01;12.90;99.90
2721;DHT22;1368;49.484;11.112;2023-03-31T18:29:27;12.80;99.90
2721;DHT22;1368;49.484;11.112;2023-03-31T18:31:52;12.60;99.90
2721;DHT22;1368;49.484;11.112;2023-03-31T18:34:18;12.40;99.90
2721;DHT22;1368;49.484;11.112;2023-03-31T18:36:43;12.50;99.90
2721;DHT22;1368;49.484;11.112;2023-03-31T18:39:10;12.40;99.90
2721;DHT22;1368;49.484;11.112;2023-03-31T18:41:41;12.40;99.90
2721;DHT22;1368;49.484;11.112;2023-03-31T18:44:08;12.20;99.90
2721;DHT22;1368;49.484;11.112;2023-03-31T18:46:33;12.20;99.90
2721;DHT22;1368;49.484;11.112;2023-03-31T18:48:59;12.20;99.90